createdAt,value
2022-12-19T00:01:56.922Z,4.22
2022-12-19T00:04:42.332Z,4.32
2022-12-19T00:07:27.309Z,4.01
2022-12-19T00:10:12.302Z,4.06
2022-12-19T00:12:57.113Z,4.31
2022-12-19T00:15:42.244Z,4.28
2022-12-19T00:18:27.194Z,3.92
2022-12-19T00:21:12.090Z,3.86
2022-12-19T00:23:57.076Z,3.81
2022-12-19T00:26:42.053Z,3.80
2022-12-19T00:29:26.971Z,3.80
2022-12-19T00:32:13.388Z,3.80
2022-12-19T00:35:01.172Z,4.40
2022-12-19T00:37:49.429Z,4.00
2022-12-19T00:40:34.643Z,4.39
2022-12-19T00:43:19.778Z,4.12
2022-12-19T00:46:04.707Z,4.05
2022-12-19T00:48:49.629Z,4.01
2022-12-19T00:51:34.575Z,3.99
2022-12-19T00:54:19.429Z,4.01
2022-12-19T00:57:04.873Z,4.04
2022-12-19T00:59:49.800Z,3.82
2022-12-19T01:02:34.861Z,4.08
2022-12-19T01:05:19.698Z,4.07
2022-12-19T01:08:05.709Z,3.91
2022-12-19T01:10:50.673Z,4.26
2022-12-19T01:13:35.595Z,4.03
2022-12-19T01:16:23.545Z,4.02
2022-12-19T01:19:08.324Z,4.03
2022-12-19T01:21:53.280Z,3.99
2022-12-19T01:24:38.239Z,4.54
2022-12-19T01:27:23.177Z,4.10
2022-12-19T01:30:08.088Z,4.11
2022-12-19T01:32:53.681Z,4.16
2022-12-19T01:35:38.700Z,4.28
2022-12-19T01:38:23.688Z,4.39
2022-12-19T01:41:08.574Z,4.40
2022-12-19T01:43:53.415Z,4.14
2022-12-19T01:46:38.468Z,4.25
2022-12-19T01:49:25.221Z,4.39
2022-12-19T01:52:12.342Z,4.47
2022-12-19T01:55:08.164Z,4.09
2022-12-19T01:57:53.088Z,4.21
2022-12-19T02:00:38.120Z,4.46
2022-12-19T02:03:22.922Z,4.44
2022-12-19T02:06:07.741Z,4.32
2022-12-19T02:08:52.592Z,4.17
2022-12-19T02:11:37.573Z,4.74
2022-12-19T02:14:22.499Z,4.56
2022-12-19T02:17:07.439Z,4.07
2022-12-19T02:19:52.309Z,3.76
2022-12-19T02:22:37.244Z,4.30
2022-12-19T02:25:22.105Z,3.89
2022-12-19T02:28:07.207Z,3.85
2022-12-19T02:30:52.293Z,4.05
2022-12-19T02:33:37.252Z,3.99
2022-12-19T02:36:22.193Z,3.78
2022-12-19T02:39:07.015Z,3.69
2022-12-19T02:41:51.853Z,3.72
2022-12-19T02:44:36.682Z,4.33
2022-12-19T02:47:21.689Z,3.99
2022-12-19T02:50:06.673Z,4.11
2022-12-19T02:52:51.568Z,4.10
2022-12-19T02:55:36.677Z,3.95
2022-12-19T02:58:21.596Z,3.75
2022-12-19T03:01:06.758Z,4.27
2022-12-19T03:03:51.505Z,4.24
2022-12-19T03:06:36.490Z,4.10
2022-12-19T03:09:21.355Z,4.02
2022-12-19T03:12:06.276Z,4.38
2022-12-19T03:14:51.208Z,4.51
2022-12-19T03:17:36.090Z,4.16
2022-12-19T03:20:20.915Z,4.39
2022-12-19T03:23:05.890Z,4.51
2022-12-19T03:25:52.465Z,3.91
2022-12-19T03:28:37.184Z,4.14
2022-12-19T03:31:22.185Z,3.86
2022-12-19T03:34:07.128Z,4.30
2022-12-19T03:36:53.418Z,4.15
2022-12-19T03:39:38.327Z,4.43
2022-12-19T03:42:23.294Z,3.90
2022-12-19T03:45:08.853Z,3.81
2022-12-19T03:47:54.346Z,3.88
2022-12-19T03:50:39.114Z,3.91
2022-12-19T03:53:24.186Z,4.27
2022-12-19T03:56:09.065Z,4.14
2022-12-19T03:58:53.972Z,4.27
2022-12-19T04:01:38.960Z,4.02
2022-12-19T04:04:23.810Z,4.68
2022-12-19T04:07:09.246Z,4.39
2022-12-19T04:09:54.368Z,4.20
2022-12-19T04:12:39.342Z,4.37
2022-12-19T04:15:24.266Z,4.20
2022-12-19T04:18:09.197Z,4.18
2022-12-19T04:20:54.077Z,4.38
2022-12-19T04:23:39.252Z,4.15
2022-12-19T04:26:24.175Z,4.30
2022-12-19T04:29:09.215Z,4.31
2022-12-19T04:31:54.176Z,4.27
2022-12-19T04:34:42.854Z,3.97
2022-12-19T04:37:28.181Z,4.37
2022-12-19T04:40:13.029Z,4.20
2022-12-19T04:42:57.876Z,4.19
2022-12-19T04:45:42.787Z,4.07
2022-12-19T04:48:28.084Z,4.26
2022-12-19T04:51:13.120Z,4.34
2022-12-19T04:53:58.007Z,4.40
2022-12-19T04:56:43.054Z,4.27
2022-12-19T04:59:27.807Z,4.08
2022-12-19T05:02:12.952Z,4.57
2022-12-19T05:04:58.164Z,4.67
2022-12-19T05:07:43.119Z,4.32
2022-12-19T05:10:28.121Z,4.08
2022-12-19T05:13:13.071Z,3.76
2022-12-19T05:15:58.080Z,4.11
2022-12-19T05:18:42.917Z,4.66
2022-12-19T05:21:27.821Z,4.23
2022-12-19T05:24:12.631Z,4.10
2022-12-19T05:26:57.530Z,3.61
2022-12-19T05:29:42.432Z,3.69
2022-12-19T05:32:27.460Z,3.74
2022-12-19T05:35:12.562Z,3.79
2022-12-19T05:37:57.467Z,3.82
2022-12-19T05:40:42.480Z,3.59
2022-12-19T05:43:27.231Z,4.18
2022-12-19T05:46:12.199Z,4.21
2022-12-19T05:48:57.017Z,3.94
2022-12-19T05:51:42.421Z,4.29
2022-12-19T05:54:27.439Z,3.94
2022-12-19T05:57:12.284Z,3.88
2022-12-19T05:59:57.201Z,4.12
2022-12-19T06:02:42.187Z,3.90
2022-12-19T06:05:27.628Z,4.00
2022-12-19T06:08:12.623Z,3.96
2022-12-19T06:10:58.775Z,3.43
2022-12-19T06:13:43.630Z,3.56
2022-12-19T06:16:28.637Z,3.98
2022-12-19T06:19:13.601Z,3.37
2022-12-19T06:21:58.403Z,4.04
2022-12-19T06:24:43.251Z,3.80
2022-12-19T06:27:28.149Z,3.59
2022-12-19T06:30:13.189Z,3.57
2022-12-19T06:32:58.093Z,3.75
2022-12-19T06:35:42.900Z,3.76
2022-12-19T06:38:27.870Z,3.48
2022-12-19T06:41:12.647Z,3.49
2022-12-19T06:43:57.521Z,3.60
2022-12-19T06:46:42.399Z,3.49
2022-12-19T06:49:28.043Z,3.68
2022-12-19T06:52:13.115Z,3.80
2022-12-19T06:54:58.155Z,3.63
2022-12-19T06:57:43.189Z,3.67
2022-12-19T07:00:28.144Z,3.74
2022-12-19T07:03:13.083Z,3.49
2022-12-19T07:05:57.973Z,3.45
2022-12-19T07:08:43.153Z,3.71
2022-12-19T07:11:27.932Z,3.60
2022-12-19T07:14:12.919Z,3.40
2022-12-19T07:16:57.752Z,3.93
2022-12-19T07:19:42.717Z,3.83
2022-12-19T07:22:27.643Z,3.65
2022-12-19T07:25:12.401Z,3.26
2022-12-19T07:27:57.324Z,3.94
2022-12-19T07:30:42.224Z,3.54
2022-12-19T07:33:27.036Z,4.18
2022-12-19T07:36:12.533Z,3.88
2022-12-19T07:38:57.318Z,3.92
2022-12-19T07:41:42.060Z,3.70
2022-12-19T07:44:27.028Z,3.88
2022-12-19T07:47:11.940Z,4.02
2022-12-19T07:49:56.950Z,4.06
2022-12-19T07:52:41.943Z,4.16
2022-12-19T07:55:26.789Z,4.16
2022-12-19T07:58:11.740Z,4.26
2022-12-19T08:00:56.656Z,4.45
2022-12-19T08:03:41.995Z,4.49
2022-12-19T08:06:26.861Z,4.36
2022-12-19T08:09:12.413Z,4.66
2022-12-19T08:11:57.374Z,4.82
2022-12-19T08:14:42.292Z,5.03
2022-12-19T08:17:27.346Z,5.02
2022-12-19T08:20:12.029Z,5.35
2022-12-19T08:22:56.992Z,5.38
2022-12-19T08:25:41.896Z,5.27
2022-12-19T08:28:26.829Z,5.48
2022-12-19T08:31:11.826Z,5.65
2022-12-19T08:33:56.755Z,5.74
2022-12-19T08:36:41.645Z,5.64
2022-12-19T08:39:26.384Z,5.70
2022-12-19T08:42:11.339Z,5.98
2022-12-19T08:44:56.181Z,5.87
2022-12-19T08:47:41.021Z,5.38
2022-12-19T08:50:25.931Z,5.37
2022-12-19T08:53:10.911Z,5.61
2022-12-19T08:55:55.869Z,6.21
2022-12-19T08:58:40.872Z,6.15
2022-12-19T09:01:25.845Z,5.93
2022-12-19T09:05:22.939Z,5.86
2022-12-19T09:07:16.250Z,6.14
2022-12-19T09:10:01.444Z,6.22
2022-12-19T09:12:49.064Z,6.31
2022-12-19T09:15:37.701Z,6.33
2022-12-19T09:18:23.811Z,6.48
2022-12-19T09:21:09.491Z,6.51
2022-12-19T09:23:54.407Z,6.47
2022-12-19T09:26:39.141Z,6.96
2022-12-19T09:29:23.947Z,6.91
2022-12-19T09:32:08.958Z,6.83
2022-12-19T09:34:53.808Z,6.83
2022-12-19T09:37:38.805Z,6.26
2022-12-19T09:40:23.655Z,6.31
2022-12-19T09:43:08.427Z,6.73
2022-12-19T09:45:53.276Z,6.72
2022-12-19T09:48:38.312Z,7.11
2022-12-19T09:51:23.105Z,6.77
2022-12-19T09:54:08.065Z,7.13
2022-12-19T09:56:53.102Z,7.21
2022-12-19T09:59:42.919Z,7.11
2022-12-19T10:02:33.228Z,7.54
2022-12-19T10:05:40.598Z,7.48
2022-12-19T10:08:23.787Z,7.60
2022-12-19T10:12:47.564Z,7.70
2022-12-19T10:14:13.600Z,7.94
2022-12-19T10:17:23.200Z,8.21
2022-12-19T10:20:03.663Z,8.24
2022-12-19T10:22:48.562Z,8.58
2022-12-19T10:25:33.686Z,8.29
2022-12-19T10:28:18.519Z,8.18
2022-12-19T10:31:12.498Z,8.37
2022-12-19T10:33:59.579Z,8.25
2022-12-19T10:37:12.885Z,8.47
2022-12-19T10:39:49.388Z,8.78
2022-12-19T10:42:34.287Z,8.92
2022-12-19T10:45:19.282Z,8.00
2022-12-19T10:48:04.008Z,8.13
2022-12-19T10:50:48.864Z,8.45
2022-12-19T10:53:33.699Z,8.90
2022-12-19T10:56:18.525Z,8.85
2022-12-19T10:59:03.399Z,8.74
2022-12-19T11:02:00.502Z,8.42
2022-12-19T11:04:46.294Z,8.93
2022-12-19T11:07:31.148Z,8.61
2022-12-19T11:10:47.291Z,8.00
2022-12-19T11:18:59.427Z,8.25
2022-12-19T11:19:26.096Z,8.44
2022-12-19T11:29:18.921Z,8.70
2022-12-19T11:30:06.172Z,9.12
2022-12-19T11:30:35.303Z,9.12
2022-12-19T11:30:35.541Z,9.50
2022-12-19T11:32:33.963Z,9.50
2022-12-19T11:34:56.553Z,8.76
2022-12-19T11:37:41.722Z,9.48
2022-12-19T11:40:26.719Z,9.65
2022-12-19T11:43:43.067Z,9.87
2022-12-19T11:46:21.793Z,10.16
2022-12-19T11:49:07.264Z,10.12
2022-12-19T11:51:52.142Z,10.28
2022-12-19T11:54:36.995Z,10.31
2022-12-19T11:57:21.702Z,9.99
2022-12-19T12:00:06.683Z,8.66
2022-12-19T12:02:51.735Z,8.66
2022-12-19T12:05:36.798Z,8.91
2022-12-19T12:09:25.362Z,8.46
2022-12-19T12:16:57.721Z,8.30
2022-12-19T12:25:01.438Z,8.65
2022-12-19T12:31:10.204Z,9.43
2022-12-19T12:31:14.423Z,8.88
2022-12-19T12:31:53.738Z,9.46
2022-12-19T12:32:00.980Z,9.09
2022-12-19T12:32:03.986Z,9.16
2022-12-19T12:35:30.457Z,9.24
2022-12-19T12:39:16.009Z,9.52
2022-12-19T12:42:05.864Z,9.27
2022-12-19T12:44:50.743Z,9.18
2022-12-19T12:47:35.570Z,9.11
2022-12-19T12:50:20.526Z,9.02
2022-12-19T12:53:05.378Z,8.48
2022-12-19T12:55:50.374Z,8.87
2022-12-19T12:58:35.234Z,8.84
2022-12-19T13:01:20.291Z,8.81
2022-12-19T13:04:06.609Z,9.12
2022-12-19T13:06:51.505Z,8.87
2022-12-19T13:09:36.319Z,9.09
2022-12-19T13:12:21.374Z,9.05
2022-12-19T13:15:06.256Z,8.44
2022-12-19T13:17:50.921Z,8.47
2022-12-19T13:20:35.891Z,9.29
2022-12-19T13:23:20.789Z,9.36
2022-12-19T13:26:05.729Z,9.35
2022-12-19T13:28:50.555Z,8.65
2022-12-19T13:31:35.421Z,8.31
2022-12-19T13:34:20.772Z,8.60
2022-12-19T13:39:50.479Z,8.97
2022-12-19T13:40:12.166Z,9.47
2022-12-19T13:43:09.702Z,9.40
2022-12-19T13:45:56.065Z,9.79
2022-12-19T13:48:41.071Z,9.31
2022-12-19T13:51:25.881Z,9.58
2022-12-19T13:54:10.772Z,9.45
2022-12-19T13:56:55.580Z,9.55
2022-12-19T13:59:40.521Z,10.12
2022-12-19T14:02:46.231Z,9.73
2022-12-19T14:06:14.773Z,10.41
2022-12-19T14:08:36.555Z,11.04
2022-12-19T14:11:44.271Z,10.73
2022-12-19T14:14:28.410Z,10.30
2022-12-19T14:17:13.814Z,10.90
2022-12-19T14:20:54.250Z,11.07
2022-12-19T14:23:03.987Z,11.75
2022-12-19T14:28:17.607Z,11.52
2022-12-19T14:28:55.082Z,12.32
2022-12-19T14:32:23.916Z,12.45
2022-12-19T14:36:04.902Z,12.40
2022-12-19T14:39:25.424Z,11.11
2022-12-19T14:41:07.283Z,11.37
2022-12-19T14:43:57.894Z,11.45
2022-12-19T14:53:52.389Z,11.55
2022-12-19T14:54:13.005Z,10.28
2022-12-19T14:54:29.064Z,10.61
2022-12-19T14:56:26.847Z,10.22
2022-12-19T14:59:05.974Z,10.20
2022-12-19T15:01:51.611Z,9.82
2022-12-19T15:04:52.641Z,9.21
2022-12-19T15:07:39.533Z,9.26
2022-12-19T15:11:06.382Z,9.22
2022-12-19T15:14:54.465Z,8.86
2022-12-19T15:16:34.407Z,8.54
2022-12-19T15:19:19.288Z,8.72
2022-12-19T15:22:04.282Z,8.63
2022-12-19T15:24:49.720Z,8.24
2022-12-19T15:27:34.553Z,8.08
2022-12-19T15:30:19.397Z,7.91
2022-12-19T15:33:04.816Z,7.93
2022-12-19T15:35:49.681Z,7.56
2022-12-19T15:38:34.656Z,7.22
2022-12-19T15:41:19.465Z,7.12
2022-12-19T15:44:05.561Z,6.93
2022-12-19T15:46:51.131Z,6.87
2022-12-19T15:49:36.065Z,7.05
2022-12-19T15:52:21.115Z,6.93
2022-12-19T15:55:06.028Z,6.96
2022-12-19T15:57:50.896Z,6.62
2022-12-19T16:00:35.716Z,6.61
2022-12-19T16:03:23.734Z,6.72
2022-12-19T16:06:09.640Z,6.76
2022-12-19T16:08:54.513Z,6.59
2022-12-19T16:11:40.512Z,6.24
2022-12-19T16:14:25.331Z,6.39
2022-12-19T16:17:10.296Z,6.50
2022-12-19T16:19:55.337Z,6.33
2022-12-19T16:22:40.167Z,6.57
2022-12-19T16:25:25.178Z,6.21
2022-12-19T16:28:09.994Z,6.56
2022-12-19T16:30:55.606Z,6.63
2022-12-19T16:33:40.521Z,6.29
2022-12-19T16:36:25.474Z,6.39
2022-12-19T16:39:10.673Z,6.55
2022-12-19T16:41:55.559Z,6.77
2022-12-19T16:44:40.539Z,6.57
2022-12-19T16:47:25.416Z,6.41
2022-12-19T16:50:10.122Z,6.57
2022-12-19T16:52:55.225Z,6.75
2022-12-19T16:55:40.062Z,6.78
2022-12-19T16:58:24.786Z,6.85
2022-12-19T17:01:09.741Z,6.71
2022-12-19T17:03:55.157Z,6.91
2022-12-19T17:06:40.030Z,6.95
2022-12-19T17:09:25.089Z,7.11
2022-12-19T17:12:09.793Z,6.96
2022-12-19T17:14:54.747Z,6.90
2022-12-19T17:17:39.682Z,6.86
2022-12-19T17:20:24.754Z,7.21
2022-12-19T17:23:09.621Z,7.10
2022-12-19T17:25:54.438Z,7.31
2022-12-19T17:28:39.209Z,7.04
2022-12-19T17:31:24.270Z,7.33
2022-12-19T17:34:09.535Z,7.14
2022-12-19T17:36:54.322Z,6.90
2022-12-19T17:39:39.234Z,7.05
2022-12-19T17:42:24.024Z,7.21
2022-12-19T17:45:08.942Z,7.25
2022-12-19T17:48:00.331Z,7.18
2022-12-19T17:50:47.288Z,7.10
2022-12-19T17:53:32.310Z,7.23
2022-12-19T17:56:17.193Z,7.05
2022-12-19T17:59:02.102Z,7.01
2022-12-19T18:01:47.325Z,6.74
2022-12-19T18:04:32.421Z,7.00
2022-12-19T18:07:17.295Z,6.78
2022-12-19T18:10:02.134Z,6.98
2022-12-19T18:12:47.006Z,7.28
2022-12-19T18:15:31.855Z,7.20
2022-12-19T18:18:16.806Z,7.20
2022-12-19T18:21:01.746Z,7.20
2022-12-19T18:23:46.620Z,7.15
2022-12-19T18:26:31.609Z,7.09
2022-12-19T18:29:16.412Z,6.97
2022-12-19T18:32:01.723Z,6.93
2022-12-19T18:34:46.473Z,6.96
2022-12-19T18:37:31.317Z,7.09
2022-12-19T18:40:21.206Z,6.70
2022-12-19T18:43:09.766Z,6.90
2022-12-19T18:45:54.749Z,7.08
2022-12-19T18:48:39.698Z,6.99
2022-12-19T18:51:24.527Z,6.70
2022-12-19T18:54:09.480Z,6.55
2022-12-19T18:56:54.423Z,6.46
2022-12-19T18:59:39.816Z,6.66
2022-12-19T19:02:24.975Z,6.50
2022-12-19T19:05:09.959Z,6.29
2022-12-19T19:07:54.970Z,6.71
2022-12-19T19:10:39.726Z,6.62
2022-12-19T19:13:24.674Z,6.81
2022-12-19T19:16:09.395Z,6.76
2022-12-19T19:18:54.386Z,6.35
2022-12-19T19:21:39.238Z,6.36
2022-12-19T19:24:24.164Z,6.39
2022-12-19T19:27:09.115Z,6.44
2022-12-19T19:29:53.997Z,6.54
2022-12-19T19:32:39.074Z,6.44
2022-12-19T19:35:23.759Z,6.29
2022-12-19T19:38:08.689Z,6.40
2022-12-19T19:40:53.392Z,6.41
2022-12-19T19:43:38.356Z,6.25
2022-12-19T19:46:23.066Z,6.24
2022-12-19T19:49:07.892Z,6.28
2022-12-19T19:51:57.021Z,6.84
2022-12-19T19:54:47.358Z,6.84
2022-12-19T19:57:32.254Z,7.07
2022-12-19T20:00:17.075Z,6.98
2022-12-19T20:03:06.360Z,7.13
2022-12-19T20:05:53.669Z,7.35
2022-12-19T20:08:40.198Z,7.11
2022-12-19T20:11:25.923Z,7.06
2022-12-19T20:14:10.725Z,7.30
2022-12-19T20:16:55.767Z,7.33
2022-12-19T20:19:40.563Z,7.05
2022-12-19T20:22:25.465Z,7.11
2022-12-19T20:25:10.368Z,6.97
2022-12-19T20:27:55.152Z,6.82
2022-12-19T20:30:40.201Z,6.81
2022-12-19T20:33:25.498Z,6.87
2022-12-19T20:36:10.356Z,6.97
2022-12-19T20:38:55.270Z,6.88
2022-12-19T20:41:40.294Z,6.83
2022-12-19T20:44:25.142Z,6.75
2022-12-19T20:47:10.081Z,6.43
2022-12-19T20:49:54.930Z,6.66
2022-12-19T20:52:39.817Z,6.54
2022-12-19T20:55:24.660Z,6.65
2022-12-19T20:58:09.522Z,6.76
2022-12-19T21:00:54.593Z,6.82
2022-12-19T21:03:39.697Z,6.71
2022-12-19T21:06:24.972Z,6.82
2022-12-19T21:09:09.719Z,6.68
2022-12-19T21:11:54.712Z,6.76
2022-12-19T21:14:39.596Z,6.81
2022-12-19T21:17:24.469Z,6.70
2022-12-19T21:20:09.264Z,6.54
2022-12-19T21:22:54.102Z,6.63
2022-12-19T21:25:39.017Z,6.47
2022-12-19T21:28:23.865Z,6.41
2022-12-19T21:31:08.824Z,6.49
2022-12-19T21:33:53.678Z,6.23
2022-12-19T21:36:38.632Z,6.33
2022-12-19T21:39:23.476Z,6.27
2022-12-19T21:42:08.436Z,6.27
2022-12-19T21:44:53.381Z,6.37
2022-12-19T21:47:38.250Z,6.03
2022-12-19T21:50:23.176Z,6.28
2022-12-19T21:53:08.144Z,6.34
2022-12-19T21:55:53.029Z,6.13
2022-12-19T21:58:37.947Z,6.29
2022-12-19T22:01:22.975Z,6.16
2022-12-19T22:04:08.320Z,6.06
2022-12-19T22:06:53.672Z,6.34
2022-12-19T22:09:38.571Z,6.31
2022-12-19T22:12:23.473Z,6.42
2022-12-19T22:15:11.211Z,6.49
2022-12-19T22:17:56.100Z,6.61
2022-12-19T22:20:40.932Z,6.48
2022-12-19T22:23:25.826Z,6.47
2022-12-19T22:26:10.816Z,6.35
2022-12-19T22:28:55.655Z,6.27
2022-12-19T22:31:40.561Z,6.35
2022-12-19T22:34:26.021Z,6.36
2022-12-19T22:37:10.936Z,6.39
2022-12-19T22:39:55.889Z,6.54
2022-12-19T22:42:40.700Z,6.52
2022-12-19T22:45:25.823Z,6.35
2022-12-19T22:48:11.161Z,6.33
2022-12-19T22:50:55.921Z,6.43
2022-12-19T22:53:40.932Z,6.16
2022-12-19T22:56:25.727Z,6.02
2022-12-19T22:59:10.661Z,6.22
2022-12-19T23:01:55.593Z,6.16
2022-12-19T23:04:41.028Z,6.03
2022-12-19T23:07:25.872Z,6.00
2022-12-19T23:10:10.785Z,5.79
2022-12-19T23:12:55.797Z,6.14
2022-12-19T23:15:40.724Z,6.12
2022-12-19T23:18:25.762Z,5.94
2022-12-19T23:21:10.523Z,6.09
2022-12-19T23:23:55.580Z,6.06
2022-12-19T23:26:40.539Z,6.06
2022-12-19T23:29:25.464Z,6.58
2022-12-19T23:32:10.346Z,6.37
2022-12-19T23:34:55.249Z,6.29
2022-12-19T23:37:40.069Z,6.28
2022-12-19T23:40:24.839Z,6.38
2022-12-19T23:43:09.642Z,6.29
2022-12-19T23:45:54.544Z,6.24
2022-12-19T23:48:39.440Z,6.50
2022-12-19T23:51:24.414Z,6.39
2022-12-19T23:54:09.330Z,6.32
2022-12-19T23:56:54.147Z,6.65
2022-12-19T23:59:39.046Z,6.44
